Time;durP1;ratioP1;P1;durP2;ratioP2;P2;SDS_P1;SDS_P2;PMS_P1;PMS_P2;Temp;Humidity;BMP_temperature;BMP_pressure;BME280_temperature;BME280_humidity;BME280_pressure;Samples;Min_cycle;Max_cycle;Signal;HPM_P1;HPM_P2
2022/07/14 00:00:37;;;;;;;7.70;3.78;;;;;;;;;;5096744;28;20214;-64
2022/07/14 00:03:07;;;;;;;5.45;3.50;;;;;;;;;;5096667;28;20202;-65
2022/07/14 00:05:35;;;;;;;11.40;4.03;;;;;;;;;;5096401;28;20195;-65
2022/07/14 00:08:03;;;;;;;5.30;3.88;;;;;;;;;;5096087;28;20203;-66
2022/07/14 00:10:30;;;;;;;5.38;3.38;;;;;;;;;;5096350;28;20264;-65
2022/07/14 00:12:57;;;;;;;4.10;3.60;;;;;;;;;;5096216;28;20287;-64
2022/07/14 00:15:24;;;;;;;6.97;3.63;;;;;;;;;;5096168;28;20202;-65
2022/07/14 00:17:52;;;;;;;5.20;3.58;;;;;;;;;;5095941;28;20202;-64
2022/07/14 00:20:19;;;;;;;8.50;3.50;;;;;;;;;;5096187;28;20291;-64
2022/07/14 00:22:46;;;;;;;7.50;3.55;;;;;;;;;;5096803;28;20261;-65
2022/07/14 00:25:13;;;;;;;4.25;3.17;;;;;;;;;;5095773;28;20195;-64
2022/07/14 00:27:40;;;;;;;5.85;3.85;;;;;;;;;;5095843;28;20639;-64
2022/07/14 00:30:07;;;;;;;5.07;3.90;;;;;;;;;;5095877;28;20617;-64
2022/07/14 00:32:35;;;;;;;9.40;4.07;;;;;;;;;;5095768;28;20226;-64
2022/07/14 00:35:03;;;;;;;4.50;3.65;;;;;;;;;;5095634;28;20507;-65
2022/07/14 00:37:30;;;;;;;8.50;3.78;;;;;;;;;;5094697;28;20206;-64
2022/07/14 00:40:00;;;;;;;5.78;3.75;;;;;;;;;;5094261;28;20675;-65
2022/07/14 00:42:37;;;;;;;5.63;3.53;;;;;;;;;;5094900;28;20202;-65
2022/07/14 00:45:10;;;;;;;6.45;3.85;;;;;;;;;;5094958;28;20201;-64
2022/07/14 00:47:37;;;;;;;7.72;3.78;;;;;;;;;;5095654;28;20191;-65
2022/07/14 00:50:05;;;;;;;5.05;3.38;;;;;;;;;;5095401;28;20285;-65
2022/07/14 00:52:40;;;;;;;6.93;3.90;;;;;;;;;;5094819;28;20233;-64
2022/07/14 00:55:09;;;;;;;5.72;3.47;;;;;;;;;;5094676;28;20198;-64
2022/07/14 00:57:37;;;;;;;5.78;4.13;;;;;;;;;;5095715;28;20203;-64
2022/07/14 01:00:07;;;;;;;4.55;3.75;;;;;;;;;;5094475;28;20214;-64
2022/07/14 01:02:34;;;;;;;5.60;3.90;;;;;;;;;;5094605;28;20226;-65
2022/07/14 01:05:02;;;;;;;6.88;3.88;;;;;;;;;;5095203;28;20207;-65
2022/07/14 01:07:30;;;;;;;5.88;4.20;;;;;;;;;;5094528;28;20199;-65
2022/07/14 01:09:57;;;;;;;7.00;3.83;;;;;;;;;;5095121;28;20203;-65
2022/07/14 01:12:24;;;;;;;9.10;4.22;;;;;;;;;;5095112;28;20681;-63
2022/07/14 01:14:54;;;;;;;4.60;3.55;;;;;;;;;;5094393;28;20203;-65
2022/07/14 01:17:31;;;;;;;7.60;3.70;;;;;;;;;;5094988;28;20636;-65
2022/07/14 01:19:58;;;;;;;5.22;3.55;;;;;;;;;;5094936;28;20212;-64
2022/07/14 01:22:25;;;;;;;5.57;3.67;;;;;;;;;;5094068;28;20226;-64
2022/07/14 01:24:52;;;;;;;7.43;3.50;;;;;;;;;;5094166;28;20210;-65
2022/07/14 01:27:20;;;;;;;7.35;3.70;;;;;;;;;;5094568;28;20209;-65
2022/07/14 01:29:47;;;;;;;5.88;3.58;;;;;;;;;;5095157;28;20294;-64
2022/07/14 01:32:14;;;;;;;6.10;3.67;;;;;;;;;;5094153;28;20226;-65
2022/07/14 01:34:41;;;;;;;7.68;3.90;;;;;;;;;;5094187;28;20214;-65
2022/07/14 01:37:28;;;;;;;5.95;4.25;;;;;;;;;;5094030;28;20293;-64
2022/07/14 01:39:55;;;;;;;8.10;3.80;;;;;;;;;;5094553;28;20214;-64
2022/07/14 01:42:22;;;;;;;7.03;3.88;;;;;;;;;;5093845;28;20297;-66
2022/07/14 01:44:49;;;;;;;6.72;4.18;;;;;;;;;;5093954;28;20207;-65
2022/07/14 01:47:17;;;;;;;9.15;4.10;;;;;;;;;;5093836;28;20210;-64
2022/07/14 01:49:43;;;;;;;6.05;3.45;;;;;;;;;;5093609;28;20206;-65
2022/07/14 01:52:10;;;;;;;5.63;3.97;;;;;;;;;;5094448;28;20226;-64
2022/07/14 01:54:39;;;;;;;8.20;4.15;;;;;;;;;;5097827;28;20207;-63
2022/07/14 01:57:08;;;;;;;5.72;3.80;;;;;;;;;;5097546;28;20198;-64
2022/07/14 01:59:36;;;;;;;5.88;3.72;;;;;;;;;;5097788;28;20202;-65
2022/07/14 02:02:03;;;;;;;5.82;3.80;;;;;;;;;;5098421;28;20272;-65
2022/07/14 02:04:31;;;;;;;6.07;3.78;;;;;;;;;;5097451;28;20198;-65
2022/07/14 02:06:58;;;;;;;7.90;4.10;;;;;;;;;;5098565;28;20229;-64
2022/07/14 02:12:32;;;;;;;4.63;3.53;;;;;;;;;;5097287;28;20649;-64
2022/07/14 02:15:00;;;;;;;5.28;3.40;;;;;;;;;;5097245;28;20214;-64
2022/07/14 02:17:28;;;;;;;5.97;3.83;;;;;;;;;;5097435;28;20199;-64
2022/07/14 02:19:56;;;;;;;9.40;3.72;;;;;;;;;;5097353;28;20199;-65
2022/07/14 02:22:24;;;;;;;9.32;4.25;;;;;;;;;;5097009;28;20708;-62
2022/07/14 02:24:51;;;;;;;4.88;3.58;;;;;;;;;;5097072;28;20203;-64
2022/07/14 02:27:18;;;;;;;5.45;4.03;;;;;;;;;;5096967;28;20198;-64
2022/07/14 02:29:45;;;;;;;8.93;4.47;;;;;;;;;;5096929;28;20210;-65
2022/07/14 02:32:12;;;;;;;9.70;4.00;;;;;;;;;;5097674;28;20234;-64
2022/07/14 02:34:39;;;;;;;5.20;4.15;;;;;;;;;;5097743;28;20645;-64
2022/07/14 02:37:07;;;;;;;6.00;4.35;;;;;;;;;;5097845;28;20206;-64
2022/07/14 02:39:33;;;;;;;5.93;4.00;;;;;;;;;;5097704;28;20230;-66
2022/07/14 02:42:00;;;;;;;9.35;4.13;;;;;;;;;;5097926;28;20207;-65
2022/07/14 02:44:28;;;;;;;5.85;4.07;;;;;;;;;;5096723;28;20220;-64
2022/07/14 02:46:55;;;;;;;6.30;4.28;;;;;;;;;;5097500;28;20209;-64
2022/07/14 02:49:22;;;;;;;6.20;4.25;;;;;;;;;;5096660;28;20644;-64
2022/07/14 02:51:49;;;;;;;7.78;4.20;;;;;;;;;;5097839;28;20214;-64
2022/07/14 02:54:17;;;;;;;6.93;4.20;;;;;;;;;;5096912;28;20526;-64
2022/07/14 02:56:45;;;;;;;8.73;4.05;;;;;;;;;;5096925;28;20202;-65
2022/07/14 02:59:13;;;;;;;11.00;4.68;;;;;;;;;;5096641;28;20626;-65
2022/07/14 03:01:44;;;;;;;5.43;4.15;;;;;;;;;;5097383;28;20206;-65
2022/07/14 03:04:18;;;;;;;6.57;4.00;;;;;;;;;;5095527;28;20203;-64
2022/07/14 03:06:46;;;;;;;5.00;4.20;;;;;;;;;;5096632;28;20237;-65
2022/07/14 03:09:18;;;;;;;5.60;4.30;;;;;;;;;;5094622;28;20219;-64
2022/07/14 03:11:45;;;;;;;8.40;4.35;;;;;;;;;;5097396;28;20198;-64
2022/07/14 03:14:12;;;;;;;7.40;4.28;;;;;;;;;;5086765;28;20203;-63
2022/07/14 03:16:41;;;;;;;6.00;4.28;;;;;;;;;;5076148;28;20622;-64
2022/07/14 03:19:10;;;;;;;8.98;3.97;;;;;;;;;;5076013;28;20218;-65
2022/07/14 03:21:37;;;;;;;5.40;3.90;;;;;;;;;;5075763;28;20262;-64
2022/07/14 03:24:06;;;;;;;5.97;3.70;;;;;;;;;;5075421;28;20200;-65
2022/07/14 03:26:35;;;;;;;7.00;4.18;;;;;;;;;;5075530;28;20199;-64
2022/07/14 03:29:03;;;;;;;10.23;4.40;;;;;;;;;;5075391;28;20200;-65
2022/07/14 03:31:31;;;;;;;6.10;4.03;;;;;;;;;;5075118;28;20203;-64
2022/07/14 03:33:59;;;;;;;5.90;4.38;;;;;;;;;;5074182;28;20223;-62
2022/07/14 03:36:28;;;;;;;7.40;4.32;;;;;;;;;;5109291;28;20196;-64
2022/07/14 03:39:04;;;;;;;6.72;4.53;;;;;;;;;;5076073;28;20211;-63
2022/07/14 03:41:31;;;;;;;8.02;4.28;;;;;;;;;;5075545;28;20682;-63
2022/07/14 03:43:58;;;;;;;7.18;4.60;;;;;;;;;;5076901;28;20288;-63
2022/07/14 03:46:27;;;;;;;5.75;4.00;;;;;;;;;;5075649;28;20207;-64
2022/07/14 03:49:04;;;;;;;10.27;4.35;;;;;;;;;;5076048;28;20300;-63
2022/07/14 03:51:32;;;;;;;5.63;4.00;;;;;;;;;;5075595;28;20203;-63
2022/07/14 03:53:59;;;;;;;7.22;4.82;;;;;;;;;;5075616;28;20612;-63
2022/07/14 03:56:27;;;;;;;8.07;4.47;;;;;;;;;;5075740;28;20210;-64
2022/07/14 03:58:54;;;;;;;4.68;4.18;;;;;;;;;;5076015;28;20215;-63
2022/07/14 04:01:22;;;;;;;8.55;4.80;;;;;;;;;;5075260;28;20286;-65
2022/07/14 04:03:52;;;;;;;8.60;4.50;;;;;;;;;;5064250;28;20242;-63
2022/07/14 04:06:19;;;;;;;10.98;4.70;;;;;;;;;;5075795;28;20230;-64
2022/07/14 04:08:46;;;;;;;6.40;5.07;;;;;;;;;;5085707;28;20219;-64
2022/07/14 04:11:14;;;;;;;8.02;4.32;;;;;;;;;;5085120;28;20223;-64
2022/07/14 04:13:42;;;;;;;10.38;4.65;;;;;;;;;;5085678;28;20374;-62
2022/07/14 04:16:10;;;;;;;9.70;4.32;;;;;;;;;;5084082;28;20310;-65
2022/07/14 04:18:42;;;;;;;8.13;4.63;;;;;;;;;;5094030;28;20236;-63
2022/07/14 04:21:11;;;;;;;8.30;4.65;;;;;;;;;;5094289;28;20288;-64
2022/07/14 04:23:39;;;;;;;7.45;4.32;;;;;;;;;;5091871;28;20560;-64
2022/07/14 04:26:07;;;;;;;10.93;4.80;;;;;;;;;;5091947;28;20233;-62
2022/07/14 04:28:35;;;;;;;11.63;4.70;;;;;;;;;;5085373;28;20306;-62
2022/07/14 04:31:02;;;;;;;9.48;4.93;;;;;;;;;;5082708;28;20218;-62
2022/07/14 04:33:33;;;;;;;6.88;4.45;;;;;;;;;;5093718;28;20287;-64
2022/07/14 04:36:02;;;;;;;7.53;4.32;;;;;;;;;;5093780;28;20226;-63
2022/07/14 04:38:30;;;;;;;7.22;4.72;;;;;;;;;;5094367;28;20230;-66
2022/07/14 04:41:00;;;;;;;5.63;4.47;;;;;;;;;;5093928;28;20219;-65
2022/07/14 04:43:29;;;;;;;8.50;4.55;;;;;;;;;;5093725;28;20225;-65
2022/07/14 04:46:01;;;;;;;6.85;4.63;;;;;;;;;;5093866;28;20234;-63
2022/07/14 04:48:30;;;;;;;8.60;4.65;;;;;;;;;;5093460;28;20210;-63
2022/07/14 04:53:44;;;;;;;10.32;4.68;;;;;;;;;;5093656;28;20672;-63
2022/07/14 04:56:28;;;;;;;8.63;4.60;;;;;;;;;;5092727;28;20227;-64
2022/07/14 04:59:01;;;;;;;7.70;4.25;;;;;;;;;;5092076;28;20237;-62
2022/07/14 05:01:28;;;;;;;7.00;4.45;;;;;;;;;;5092483;28;20229;-63
2022/07/14 05:03:55;;;;;;;6.68;4.22;;;;;;;;;;5093031;28;20230;-60
2022/07/14 05:06:30;;;;;;;6.40;4.20;;;;;;;;;;5094477;28;20221;-64
2022/07/14 05:08:57;;;;;;;8.55;4.13;;;;;;;;;;5093583;28;20218;-62
2022/07/14 05:11:24;;;;;;;10.15;4.50;;;;;;;;;;5095066;28;20227;-64
2022/07/14 05:13:56;;;;;;;6.50;4.25;;;;;;;;;;5113681;28;20234;-64
2022/07/14 05:16:23;;;;;;;7.72;3.78;;;;;;;;;;5113609;28;20267;-64
2022/07/14 05:18:51;;;;;;;8.82;4.38;;;;;;;;;;5114636;28;20294;-64
2022/07/14 05:21:19;;;;;;;8.82;4.40;;;;;;;;;;5114635;28;20213;-66
2022/07/14 05:23:46;;;;;;;10.00;3.92;;;;;;;;;;5114858;28;20194;-65
2022/07/14 05:26:14;;;;;;;7.18;4.10;;;;;;;;;;5114202;28;20202;-65
2022/07/14 05:28:41;;;;;;;6.43;4.25;;;;;;;;;;5114430;28;20190;-64
2022/07/14 05:31:09;;;;;;;8.10;4.22;;;;;;;;;;5115368;28;20632;-65
2022/07/14 05:33:40;;;;;;;7.57;4.72;;;;;;;;;;5114102;28;20614;-66
2022/07/14 05:36:09;;;;;;;6.38;4.55;;;;;;;;;;5114514;28;20206;-64
2022/07/14 05:38:35;;;;;;;6.28;4.05;;;;;;;;;;5114784;28;20198;-65
2022/07/14 05:41:03;;;;;;;5.85;5.10;;;;;;;;;;5114455;28;20201;-65
2022/07/14 05:43:31;;;;;;;7.75;4.70;;;;;;;;;;5114351;28;20522;-65
2022/07/14 05:46:09;;;;;;;6.38;4.35;;;;;;;;;;5114441;28;20202;-65
2022/07/14 05:48:39;;;;;;;6.43;4.45;;;;;;;;;;5114289;28;20248;-64
2022/07/14 05:51:10;;;;;;;10.35;4.10;;;;;;;;;;5113292;28;20283;-63
2022/07/14 05:53:39;;;;;;;5.90;3.92;;;;;;;;;;5112229;28;20218;-65
2022/07/14 05:56:08;;;;;;;5.88;4.60;;;;;;;;;;5113471;28;20194;-62
2022/07/14 05:58:35;;;;;;;6.93;4.63;;;;;;;;;;5114021;28;20582;-64
2022/07/14 06:01:04;;;;;;;7.30;4.32;;;;;;;;;;5089193;28;20218;-64
2022/07/14 06:03:31;;;;;;;5.60;4.80;;;;;;;;;;5084399;28;20207;-67
2022/07/14 06:06:04;;;;;;;7.78;4.65;;;;;;;;;;5072780;28;20227;-65
2022/07/14 06:08:32;;;;;;;8.40;4.57;;;;;;;;;;5106203;28;20238;-64
2022/07/14 06:11:00;;;;;;;6.85;4.20;;;;;;;;;;5105879;28;20647;-66
2022/07/14 06:13:30;;;;;;;7.03;4.53;;;;;;;;;;5074303;28;20235;-66
2022/07/14 06:15:58;;;;;;;5.68;4.47;;;;;;;;;;5088111;28;20238;-66
2022/07/14 06:18:27;;;;;;;9.25;4.57;;;;;;;;;;5090599;28;20232;-65
2022/07/14 06:20:55;;;;;;;7.40;4.25;;;;;;;;;;5091006;28;20223;-66
2022/07/14 06:23:23;;;;;;;6.05;4.18;;;;;;;;;;5068693;28;20304;-66
2022/07/14 06:25:51;;;;;;;4.70;3.65;;;;;;;;;;5105822;28;20203;-67
2022/07/14 06:28:23;;;;;;;6.85;3.67;;;;;;;;;;5072195;28;20203;-66
2022/07/14 06:30:53;;;;;;;6.10;3.58;;;;;;;;;;5072124;28;20644;-67
2022/07/14 06:33:21;;;;;;;5.30;3.90;;;;;;;;;;5071852;28;20227;-66
2022/07/14 06:35:49;;;;;;;7.35;3.38;;;;;;;;;;5074605;28;20195;-66
2022/07/14 06:38:32;;;;;;;5.60;3.70;;;;;;;;;;5099617;28;20226;-66
2022/07/14 06:40:59;;;;;;;6.40;3.78;;;;;;;;;;5113658;27;20218;-67
2022/07/14 06:43:29;;;;;;;7.57;4.00;;;;;;;;;;5077005;28;20265;-66
2022/07/14 06:46:07;;;;;;;8.18;4.22;;;;;;;;;;5077178;28;20626;-66
2022/07/14 06:48:35;;;;;;;9.20;3.40;;;;;;;;;;5092404;28;20225;-66
2022/07/14 06:51:03;;;;;;;7.88;4.25;;;;;;;;;;5095847;28;20229;-67
2022/07/14 06:53:31;;;;;;;6.03;3.67;;;;;;;;;;5094413;28;20226;-67
2022/07/14 06:55:58;;;;;;;7.63;3.50;;;;;;;;;;5095893;28;20222;-66
2022/07/14 06:58:25;;;;;;;4.15;3.47;;;;;;;;;;5095609;28;20669;-67
2022/07/14 07:00:52;;;;;;;8.70;3.88;;;;;;;;;;5095700;28;20227;-67
2022/07/14 07:03:19;;;;;;;8.43;4.15;;;;;;;;;;5095951;28;20230;-66
2022/07/14 07:08:32;;;;;;;5.88;4.20;;;;;;;;;;5096768;28;20685;-67
2022/07/14 07:10:59;;;;;;;5.65;3.78;;;;;;;;;;5096672;28;20261;-67
2022/07/14 07:13:26;;;;;;;11.48;3.75;;;;;;;;;;5096563;28;20231;-67
2022/07/14 07:15:57;;;;;;;7.97;3.70;;;;;;;;;;5096589;28;20222;-67
2022/07/14 07:18:24;;;;;;;7.82;3.42;;;;;;;;;;5096153;28;20223;-67
2022/07/14 07:20:52;;;;;;;4.82;3.45;;;;;;;;;;5096132;28;20226;-67
2022/07/14 07:23:19;;;;;;;4.75;3.13;;;;;;;;;;5096278;28;20234;-66
2022/07/14 07:25:46;;;;;;;7.22;3.78;;;;;;;;;;5095976;28;20227;-66
2022/07/14 07:28:13;;;;;;;5.80;3.67;;;;;;;;;;5095716;28;20669;-65
2022/07/14 07:30:40;;;;;;;8.05;3.03;;;;;;;;;;5096572;28;20569;-66
2022/07/14 07:33:08;;;;;;;3.47;3.13;;;;;;;;;;5094436;28;20242;-66
2022/07/14 07:35:35;;;;;;;3.90;3.05;;;;;;;;;;5094622;28;20272;-66
2022/07/14 07:38:06;;;;;;;4.75;2.95;;;;;;;;;;5091658;28;20254;-66
2022/07/14 07:40:33;;;;;;;4.75;2.70;;;;;;;;;;5094483;28;20305;-66
2022/07/14 07:43:00;;;;;;;3.97;2.30;;;;;;;;;;5094149;28;20744;-65
2022/07/14 07:45:27;;;;;;;3.00;2.38;;;;;;;;;;5093976;28;20218;-66
2022/07/14 07:47:54;;;;;;;3.45;2.42;;;;;;;;;;5094121;28;20225;-65
2022/07/14 07:50:22;;;;;;;5.43;2.53;;;;;;;;;;5094300;28;20218;-66
2022/07/14 07:52:49;;;;;;;4.75;2.22;;;;;;;;;;5094775;28;20315;-65
2022/07/14 07:55:16;;;;;;;3.20;2.60;;;;;;;;;;5095135;28;20511;-66
2022/07/14 07:57:52;;;;;;;3.90;2.53;;;;;;;;;;5092141;28;20198;-66
2022/07/14 08:00:20;;;;;;;5.85;3.00;;;;;;;;;;5094958;28;20202;-65
2022/07/14 08:02:52;;;;;;;4.95;2.50;;;;;;;;;;5095143;28;20199;-66
2022/07/14 08:05:24;;;;;;;4.82;2.50;;;;;;;;;;5094651;28;20198;-66
2022/07/14 08:08:11;;;;;;;4.85;2.50;;;;;;;;;;5092678;28;20186;-67
2022/07/14 08:10:39;;;;;;;5.50;2.65;;;;;;;;;;5094439;28;20210;-67
2022/07/14 08:13:07;;;;;;;3.00;2.20;;;;;;;;;;5095439;28;20614;-67
2022/07/14 08:15:35;;;;;;;3.08;2.50;;;;;;;;;;5095622;28;20205;-67
2022/07/14 08:18:02;;;;;;;3.38;2.25;;;;;;;;;;5095857;28;20207;-64
2022/07/14 08:20:29;;;;;;;3.50;2.10;;;;;;;;;;5094868;28;20195;-67
2022/07/14 08:22:57;;;;;;;4.97;2.25;;;;;;;;;;5093483;28;20238;-65
2022/07/14 08:25:24;;;;;;;3.33;2.17;;;;;;;;;;5095022;28;20289;-64
2022/07/14 08:27:52;;;;;;;3.08;2.58;;;;;;;;;;5094266;28;20186;-66
2022/07/14 08:30:20;;;;;;;7.88;2.40;;;;;;;;;;5094293;28;20202;-64
2022/07/14 08:32:49;;;;;;;3.70;2.20;;;;;;;;;;5094266;28;20198;-65
2022/07/14 08:35:19;;;;;;;4.43;2.30;;;;;;;;;;5091715;28;20219;-67
2022/07/14 08:37:46;;;;;;;2.63;2.20;;;;;;;;;;5092378;28;20211;-62
2022/07/14 08:40:19;;;;;;;5.22;2.05;;;;;;;;;;5084412;28;20230;-62
2022/07/14 08:42:50;;;;;;;3.00;2.00;;;;;;;;;;5092957;28;20210;-64
2022/07/14 08:45:20;;;;;;;2.75;2.00;;;;;;;;;;5094674;28;20226;-64
2022/07/14 08:47:48;;;;;;;4.70;1.70;;;;;;;;;;5094492;28;20283;-64
2022/07/14 08:50:17;;;;;;;6.22;2.15;;;;;;;;;;5093399;28;20242;-65
2022/07/14 08:52:46;;;;;;;5.05;1.98;;;;;;;;;;5094400;28;20240;-64
2022/07/14 08:55:18;;;;;;;3.30;1.90;;;;;;;;;;5094030;28;20238;-64
2022/07/14 08:57:45;;;;;;;4.68;2.20;;;;;;;;;;5089188;28;20215;-64
2022/07/14 09:00:15;;;;;;;5.28;1.98;;;;;;;;;;5093352;28;20230;-65
2022/07/14 09:03:00;;;;;;;3.30;2.20;;;;;;;;;;5090190;28;20222;-65
2022/07/14 09:05:48;;;;;;;2.60;2.00;;;;;;;;;;5087662;28;20202;-65
2022/07/14 09:08:16;;;;;;;2.80;2.17;;;;;;;;;;5090142;28;20201;-65
2022/07/14 09:10:45;;;;;;;2.90;1.73;;;;;;;;;;5089742;28;20214;-64
2022/07/14 09:13:33;;;;;;;5.07;2.08;;;;;;;;;;5094202;28;20202;-65
2022/07/14 09:16:16;;;;;;;2.88;2.00;;;;;;;;;;5094221;28;20536;-63
2022/07/14 09:19:10;;;;;;;7.88;1.98;;;;;;;;;;5085246;28;20575;-64
2022/07/14 09:21:38;;;;;;;2.05;1.70;;;;;;;;;;5078597;28;20533;-64
2022/07/14 09:24:09;;;;;;;2.95;2.13;;;;;;;;;;5088180;28;20219;-63
2022/07/14 09:26:48;;;;;;;3.83;2.28;;;;;;;;;;5074157;28;20227;-64
2022/07/14 09:29:20;;;;;;;2.63;2.10;;;;;;;;;;5092840;28;20609;-67
2022/07/14 09:31:47;;;;;;;5.38;2.10;;;;;;;;;;5093768;28;20661;-66
2022/07/14 09:34:29;;;;;;;2.70;1.95;;;;;;;;;;5093896;28;20222;-66
2022/07/14 09:37:17;;;;;;;3.33;1.90;;;;;;;;;;5092551;28;20238;-66
2022/07/14 09:39:55;;;;;;;4.45;2.03;;;;;;;;;;5093859;28;20232;-67
2022/07/14 09:42:50;;;;;;;3.03;2.28;;;;;;;;;;5093915;28;20259;-65
2022/07/14 09:45:21;;;;;;;2.83;2.00;;;;;;;;;;5093852;28;20237;-66
2022/07/14 09:47:52;;;;;;;3.00;1.95;;;;;;;;;;5093792;28;20570;-66
2022/07/14 09:50:31;;;;;;;2.58;2.30;;;;;;;;;;5092959;28;20256;-67
2022/07/14 09:52:59;;;;;;;5.25;2.03;;;;;;;;;;5093442;28;20686;-67
2022/07/14 09:55:26;;;;;;;2.53;1.90;;;;;;;;;;5092702;28;20242;-66
2022/07/14 09:57:53;;;;;;;3.15;1.80;;;;;;;;;;5093555;28;20722;-66
2022/07/14 10:00:20;;;;;;;3.42;2.25;;;;;;;;;;5093812;28;20546;-68
2022/07/14 10:02:47;;;;;;;2.10;1.70;;;;;;;;;;5093457;28;20226;-66
2022/07/14 10:05:14;;;;;;;3.17;1.85;;;;;;;;;;5092000;28;20554;-65
2022/07/14 10:07:47;;;;;;;8.35;2.05;;;;;;;;;;5089818;28;20183;-64
2022/07/14 10:10:22;;;;;;;6.78;2.28;;;;;;;;;;5093009;28;20205;-66
2022/07/14 10:12:50;;;;;;;4.32;2.08;;;;;;;;;;5094908;28;20573;-65
2022/07/14 10:15:18;;;;;;;5.60;2.15;;;;;;;;;;5097350;28;20222;-66
2022/07/14 10:17:45;;;;;;;4.05;1.63;;;;;;;;;;5098376;28;20214;-66
2022/07/14 10:20:15;;;;;;;2.80;2.03;;;;;;;;;;5098088;28;20202;-66
2022/07/14 10:22:45;;;;;;;4.07;1.80;;;;;;;;;;5098382;28;20245;-66
2022/07/14 10:25:13;;;;;;;2.50;1.90;;;;;;;;;;5097522;28;20233;-65
2022/07/14 10:27:41;;;;;;;3.95;1.95;;;;;;;;;;5097943;28;20203;-66
2022/07/14 10:30:10;;;;;;;6.57;2.05;;;;;;;;;;5097302;28;20213;-68
2022/07/14 10:33:01;;;;;;;2.42;1.85;;;;;;;;;;5098274;28;20198;-68
2022/07/14 10:35:47;;;;;;;2.90;1.75;;;;;;;;;;5097492;28;20214;-69
2022/07/14 10:38:41;;;;;;;3.70;1.80;;;;;;;;;;5097008;28;20678;-67
2022/07/14 10:41:27;;;;;;;3.30;1.80;;;;;;;;;;5093794;28;20194;-65
2022/07/14 10:44:16;;;;;;;3.28;1.60;;;;;;;;;;5095756;28;20206;-66
2022/07/14 10:46:46;;;;;;;3.13;1.60;;;;;;;;;;5093898;28;20648;-63
2022/07/14 10:49:15;;;;;;;2.97;1.90;;;;;;;;;;5095449;28;20542;-61
2022/07/14 10:51:44;;;;;;;3.88;1.73;;;;;;;;;;5093066;28;20207;-62
2022/07/14 10:54:27;;;;;;;7.38;1.70;;;;;;;;;;5096322;28;20259;-60
2022/07/14 10:57:19;;;;;;;4.07;1.60;;;;;;;;;;5094986;28;20248;-61
2022/07/14 10:59:47;;;;;;;3.92;1.95;;;;;;;;;;5094093;28;20199;-61
2022/07/14 11:02:15;;;;;;;5.03;1.98;;;;;;;;;;5094193;28;20195;-61
2022/07/14 11:05:08;;;;;;;3.83;1.45;;;;;;;;;;5093601;28;20202;-61
2022/07/14 11:07:47;;;;;;;1.90;1.70;;;;;;;;;;5094482;28;20252;-62
2022/07/14 11:10:14;;;;;;;1.90;1.70;;;;;;;;;;5095253;28;20247;-61
2022/07/14 11:13:00;;;;;;;3.92;1.73;;;;;;;;;;5096493;28;20267;-62
2022/07/14 11:15:43;;;;;;;3.47;1.75;;;;;;;;;;5093876;28;20205;-62
2022/07/14 11:18:17;;;;;;;2.85;1.60;;;;;;;;;;5094195;28;20610;-62
2022/07/14 11:20:55;;;;;;;3.80;1.65;;;;;;;;;;5089521;28;20198;-60
2022/07/14 11:23:25;;;;;;;4.18;1.88;;;;;;;;;;5091795;28;20233;-62
2022/07/14 11:25:54;;;;;;;4.78;1.85;;;;;;;;;;5093964;28;20195;-61
2022/07/14 11:28:49;;;;;;;5.85;2.05;;;;;;;;;;5095785;28;20191;-64
2022/07/14 11:31:18;;;;;;;4.03;1.98;;;;;;;;;;5094647;28;20609;-61
2022/07/14 11:36:36;;;;;;;2.90;1.80;;;;;;;;;;5093338;28;20202;-62
2022/07/14 11:39:23;;;;;;;2.13;1.52;;;;;;;;;;5092735;28;20179;-63
2022/07/14 11:42:02;;;;;;;2.22;1.73;;;;;;;;;;5096056;28;20645;-63
2022/07/14 11:44:40;;;;;;;3.08;2.10;;;;;;;;;;5093795;28;20186;-61
2022/07/14 11:47:14;;;;;;;2.70;1.83;;;;;;;;;;5091213;28;20191;-62
2022/07/14 11:49:59;;;;;;;3.15;2.00;;;;;;;;;;5095931;28;20195;-60
2022/07/14 11:52:37;;;;;;;7.78;2.20;;;;;;;;;;5093900;28;20205;-62
2022/07/14 11:55:12;;;;;;;4.65;1.90;;;;;;;;;;5095087;28;20218;-60
2022/07/14 11:57:49;;;;;;;4.90;1.83;;;;;;;;;;5095048;28;20541;-60
2022/07/14 12:00:16;;;;;;;4.20;1.63;;;;;;;;;;5093523;28;20190;-61
2022/07/14 12:02:53;;;;;;;4.93;1.80;;;;;;;;;;5095064;28;20202;-60
2022/07/14 12:05:25;;;;;;;4.53;2.00;;;;;;;;;;5095233;28;20194;-62
2022/07/14 12:07:54;;;;;;;2.60;1.65;;;;;;;;;;5092102;28;20190;-62
2022/07/14 12:10:53;;;;;;;4.45;1.95;;;;;;;;;;5092083;28;20248;-60
2022/07/14 12:13:21;;;;;;;5.88;1.70;;;;;;;;;;5067465;28;20203;-60
2022/07/14 12:15:48;;;;;;;3.15;1.70;;;;;;;;;;5074032;28;20289;-60
2022/07/14 12:18:15;;;;;;;2.83;1.55;;;;;;;;;;5072473;28;20618;-61
2022/07/14 12:20:47;;;;;;;4.47;1.50;;;;;;;;;;5072056;28;20232;-59
2022/07/14 12:23:15;;;;;;;3.88;1.70;;;;;;;;;;5071945;28;20238;-59
2022/07/14 12:25:45;;;;;;;3.67;1.52;;;;;;;;;;5071782;28;20985;-62
2022/07/14 12:28:17;;;;;;;2.38;1.50;;;;;;;;;;5073052;28;20277;-61
2022/07/14 12:30:54;;;;;;;5.47;1.60;;;;;;;;;;5072399;28;20227;-63
2022/07/14 12:33:27;;;;;;;4.20;2.40;;;;;;;;;;5072387;28;20257;-63
2022/07/14 12:35:56;;;;;;;4.07;1.70;;;;;;;;;;5062029;28;20234;-66
2022/07/14 12:38:25;;;;;;;2.72;1.30;;;;;;;;;;5073220;28;20223;-63
2022/07/14 12:40:57;;;;;;;1.80;1.30;;;;;;;;;;5072611;28;20227;-65
2022/07/14 12:43:42;;;;;;;3.53;2.45;;;;;;;;;;5052304;28;20223;-66
2022/07/14 12:46:15;;;;;;;5.50;1.77;;;;;;;;;;5079297;28;20261;-64
2022/07/14 12:48:50;;;;;;;3.90;1.48;;;;;;;;;;5081203;28;20555;-64
2022/07/14 12:51:30;;;;;;;6.35;1.30;;;;;;;;;;5074654;28;20314;-63
2022/07/14 12:54:02;;;;;;;2.83;1.40;;;;;;;;;;5079235;28;20657;-65
2022/07/14 12:56:35;;;;;;;2.92;1.67;;;;;;;;;;5093093;28;20319;-66
2022/07/14 12:59:05;;;;;;;3.35;1.60;;;;;;;;;;5093600;28;20238;-63
2022/07/14 13:01:54;;;;;;;3.97;1.23;;;;;;;;;;5093716;28;20328;-63
2022/07/14 13:04:35;;;;;;;2.38;1.30;;;;;;;;;;5093775;28;20236;-64
2022/07/14 13:07:27;;;;;;;1.65;1.25;;;;;;;;;;5094730;28;20218;-62
2022/07/14 13:10:05;;;;;;;2.50;1.50;;;;;;;;;;5091504;28;20275;-63
2022/07/14 13:12:34;;;;;;;3.53;1.40;;;;;;;;;;5094502;28;20226;-64
2022/07/14 13:15:09;;;;;;;4.20;1.20;;;;;;;;;;5093944;28;20250;-63
2022/07/14 13:18:02;;;;;;;17.00;1.75;;;;;;;;;;5094073;28;20252;-64
2022/07/14 13:20:46;;;;;;;6.18;1.30;;;;;;;;;;5093677;28;20231;-62
2022/07/14 13:23:32;;;;;;;3.30;1.38;;;;;;;;;;5094605;28;20326;-63
2022/07/14 13:26:04;;;;;;;5.97;1.25;;;;;;;;;;5094247;28;20230;-62
2022/07/14 13:28:41;;;;;;;7.82;1.63;;;;;;;;;;5093838;28;20227;-63
2022/07/14 13:31:10;;;;;;;4.13;1.23;;;;;;;;;;5094208;28;20287;-61
2022/07/14 13:33:43;;;;;;;4.20;1.40;;;;;;;;;;5093656;28;20239;-63
2022/07/14 13:36:12;;;;;;;8.43;1.42;;;;;;;;;;5076484;28;20235;-61
2022/07/14 13:38:41;;;;;;;2.75;1.38;;;;;;;;;;5093994;28;20219;-61
2022/07/14 13:41:09;;;;;;;1.90;1.38;;;;;;;;;;5093600;28;20253;-62
2022/07/14 13:43:38;;;;;;;4.70;1.30;;;;;;;;;;5083759;28;20222;-63
2022/07/14 13:46:05;;;;;;;2.83;1.73;;;;;;;;;;5092077;28;20223;-62
2022/07/14 13:48:33;;;;;;;3.78;1.20;;;;;;;;;;5095414;28;20606;-62
2022/07/14 13:53:46;;;;;;;4.28;1.50;;;;;;;;;;5078094;28;20247;-66
2022/07/14 13:56:13;;;;;;;2.05;1.13;;;;;;;;;;5077915;28;20234;-68
2022/07/14 13:58:41;;;;;;;2.42;1.30;;;;;;;;;;5080818;28;20829;-62
2022/07/14 14:01:15;;;;;;;4.85;1.35;;;;;;;;;;5108178;28;20683;-64
2022/07/14 14:03:42;;;;;;;1.42;1.10;;;;;;;;;;5085872;28;20261;-65
2022/07/14 14:06:31;;;;;;;2.30;1.23;;;;;;;;;;5077563;28;20230;-66
2022/07/14 14:08:58;;;;;;;2.30;1.25;;;;;;;;;;5079090;28;20293;-66
2022/07/14 14:11:26;;;;;;;2.72;1.40;;;;;;;;;;5097126;28;20219;-67
2022/07/14 14:13:53;;;;;;;2.97;1.23;;;;;;;;;;5098026;28;20261;-65
2022/07/14 14:16:21;;;;;;;6.68;1.20;;;;;;;;;;5080826;28;20231;-62
2022/07/14 14:18:48;;;;;;;1.60;1.08;;;;;;;;;;5108723;28;20314;-66
2022/07/14 14:21:17;;;;;;;2.55;1.20;;;;;;;;;;5082325;28;20216;-65
2022/07/14 14:23:44;;;;;;;5.38;1.10;;;;;;;;;;5078305;28;20593;-67
2022/07/14 14:26:12;;;;;;;2.28;1.50;;;;;;;;;;5076271;28;20227;-66
2022/07/14 14:28:40;;;;;;;5.68;1.38;;;;;;;;;;5089052;28;20280;-64
2022/07/14 14:31:08;;;;;;;3.85;1.48;;;;;;;;;;5091351;28;20226;-63
2022/07/14 14:33:35;;;;;;;2.60;1.30;;;;;;;;;;5075718;28;20227;-63
2022/07/14 14:36:03;;;;;;;2.83;1.20;;;;;;;;;;5085443;28;20239;-63
2022/07/14 14:38:30;;;;;;;3.63;1.08;;;;;;;;;;5085670;28;20221;-63
2022/07/14 14:40:57;;;;;;;1.75;1.10;;;;;;;;;;5095314;28;20537;-65
2022/07/14 14:43:24;;;;;;;2.13;0.90;;;;;;;;;;5097078;28;20287;-66
2022/07/14 14:45:52;;;;;;;3.28;1.30;;;;;;;;;;5097072;28;20222;-66
2022/07/14 14:48:19;;;;;;;2.45;1.20;;;;;;;;;;5096386;28;20234;-64
2022/07/14 14:50:46;;;;;;;3.83;1.23;;;;;;;;;;5096863;28;20244;-64
2022/07/14 14:53:13;;;;;;;5.30;1.20;;;;;;;;;;5097055;28;20226;-64
2022/07/14 14:55:44;;;;;;;2.20;0.95;;;;;;;;;;5096715;28;20234;-66
2022/07/14 14:58:11;;;;;;;1.52;1.00;;;;;;;;;;5095708;28;20218;-65
2022/07/14 15:00:44;;;;;;;13.27;2.67;;;;;;;;;;5093570;28;20222;-65
2022/07/14 15:03:12;;;;;;;4.40;0.90;;;;;;;;;;5096245;28;20225;-64
2022/07/14 15:05:40;;;;;;;2.63;1.10;;;;;;;;;;5096224;28;20222;-65
2022/07/14 15:08:07;;;;;;;2.97;1.20;;;;;;;;;;5096075;28;20677;-66
2022/07/14 15:10:34;;;;;;;2.17;0.90;;;;;;;;;;5096220;28;20295;-66
2022/07/14 15:13:01;;;;;;;2.05;0.98;;;;;;;;;;5096745;28;20222;-64
2022/07/14 15:15:33;;;;;;;4.60;1.02;;;;;;;;;;5096547;28;20291;-67
2022/07/14 15:18:01;;;;;;;5.95;0.98;;;;;;;;;;5095709;28;20288;-66